Time;durP1;ratioP1;P1;durP2;ratioP2;P2;SDS_P1;SDS_P2;PMS_P1;PMS_P2;Temp;Humidity;BMP_temperature;BMP_pressure;BME280_temperature;BME280_humidity;BME280_pressure;Samples;Min_cycle;Max_cycle;Signal;HPM_P1;HPM_P2
2023/09/25 00:00:07;;;;;;;6.30;2.93;;;;;;;17.46;89.99;100719.41;10252487;29;20051;-77
2023/09/25 00:05:08;;;;;;;7.82;2.97;;;;;;;17.37;90.04;100703.69;10314709;28;20058;-78
2023/09/25 00:10:09;;;;;;;7.18;2.83;;;;;;;17.01;89.70;100640.41;10314620;28;20474;-77
2023/09/25 00:15:10;;;;;;;10.10;3.13;;;;;;;17.31;89.81;100695.41;10314641;28;20058;-77
2023/09/25 00:20:12;;;;;;;5.78;2.58;;;;;;;17.20;89.12;100669.19;10331118;28;20050;-77
2023/09/25 00:25:12;;;;;;;5.45;2.85;;;;;;;17.50;88.63;100714.44;10332118;28;20097;-77
2023/09/25 00:30:14;;;;;;;6.10;2.90;;;;;;;17.60;88.19;100724.81;10331821;28;20093;-77
2023/09/25 00:35:15;;;;;;;7.65;2.75;;;;;;;17.22;87.43;100664.41;10330951;28;20462;-77
2023/09/25 00:40:21;;;;;;;4.97;2.53;;;;;;;16.32;86.54;100520.72;10330983;28;20046;-77
2023/09/25 00:45:23;;;;;;;6.88;2.47;;;;;;;17.64;86.03;100736.78;10330893;28;20046;-77
2023/09/25 00:50:29;;;;;;;5.30;2.22;;;;;;;17.08;85.51;100643.94;10330934;28;20038;-78
2023/09/25 00:55:30;;;;;;;8.15;2.75;;;;;;;17.58;84.98;100731.19;10331010;28;20473;-77
2023/09/25 01:00:31;;;;;;;4.47;2.60;;;;;;;17.30;84.62;100701.81;10330475;28;20141;-77
2023/09/25 01:05:33;;;;;;;7.40;2.80;;;;;;;17.44;84.71;100731.38;10331104;28;20050;-77
2023/09/25 01:10:33;;;;;;;5.95;2.67;;;;;;;17.15;84.33;100684.25;10330375;28;20205;-77
2023/09/25 01:15:34;;;;;;;7.13;2.75;;;;;;;16.98;84.16;100668.47;10313706;28;20168;-77
2023/09/25 01:20:36;;;;;;;22.40;2.95;;;;;;;17.36;84.08;100740.47;10330623;28;20047;-77
2023/09/25 01:25:37;;;;;;;6.95;3.10;;;;;;;17.37;83.94;100741.28;10329949;28;20055;-77
2023/09/25 01:30:39;;;;;;;6.28;2.85;;;;;;;17.26;83.73;100737.31;10331785;28;20133;-77
2023/09/25 01:35:41;;;;;;;11.07;3.10;;;;;;;16.93;83.70;100700.50;10337807;28;20060;-77
2023/09/25 01:40:42;;;;;;;7.30;2.67;;;;;;;16.80;84.78;100724.56;10337912;28;20050;-78
2023/09/25 01:45:42;;;;;;;8.40;2.90;;;;;;;16.28;85.90;100666.94;10336773;28;20050;-77
2023/09/25 01:50:43;;;;;;;10.18;3.38;;;;;;;16.54;86.48;100744.00;10337075;28;20050;-77
2023/09/25 01:55:44;;;;;;;6.10;3.17;;;;;;;16.40;86.39;100713.59;10319704;28;20054;-76
2023/09/25 02:00:45;;;;;;;8.13;3.08;;;;;;;16.19;86.49;100698.41;10336651;28;20071;-77
2023/09/25 02:05:46;;;;;;;9.55;3.08;;;;;;;16.36;86.75;100729.25;10325915;28;20053;-77
2023/09/25 02:10:46;;;;;;;9.35;3.08;;;;;;;16.48;86.40;100726.81;10313199;28;20047;-77
2023/09/25 02:15:47;;;;;;;6.82;2.97;;;;;;;16.28;86.18;100685.69;10295337;28;20094;-77
2023/09/25 02:20:48;;;;;;;7.90;2.85;;;;;;;16.71;85.68;100731.09;10294906;28;20047;-78
2023/09/25 02:25:49;;;;;;;6.40;2.90;;;;;;;16.38;85.03;100670.06;10336547;28;20089;-77
2023/09/25 02:30:50;;;;;;;10.77;3.58;;;;;;;16.67;84.93;100715.41;10335759;28;20481;-77
2023/09/25 02:35:51;;;;;;;7.57;2.92;;;;;;;16.49;84.56;100687.47;10309454;28;20458;-77
2023/09/25 02:40:51;;;;;;;7.32;3.25;;;;;;;16.66;85.22;100755.81;10295081;28;20105;-81
2023/09/25 02:45:53;;;;;;;9.52;3.08;;;;;;;16.42;86.00;100749.94;10293805;28;20072;-80
2023/09/25 02:50:54;;;;;;;14.20;3.60;;;;;;;16.17;86.78;100737.97;10301170;28;20142;-80
2023/09/25 02:55:55;;;;;;;7.35;3.30;;;;;;;16.13;87.61;100764.34;10291659;28;20058;-80
2023/09/25 03:00:59;;;;;;;14.85;3.80;;;;;;;15.88;88.91;100747.00;10294829;28;20055;-81
2023/09/25 03:05:59;;;;;;;10.27;3.03;;;;;;;15.45;88.66;100691.59;10294117;28;20043;-80
2023/09/25 03:11:00;;;;;;;24.90;3.83;;;;;;;15.31;89.17;100687.13;10293730;28;20055;-80
2023/09/25 03:16:01;;;;;;;12.68;3.63;;;;;;;15.92;89.63;100783.97;10293697;28;20081;-80
2023/09/25 03:21:14;;;;;;;18.88;3.60;;;;;;;16.05;90.43;100774.38;10292754;28;20198;-80
2023/09/25 03:26:16;;;;;;;18.42;4.00;;;;;;;16.02;89.13;100753.31;10293785;28;20541;-81
2023/09/25 03:31:17;;;;;;;12.48;4.30;;;;;;;16.33;88.77;100780.59;10293956;28;20399;-80
2023/09/25 03:36:18;;;;;;;17.88;6.25;;;;;;;16.31;87.88;100747.78;10290702;28;20055;-78
2023/09/25 03:41:18;;;;;;;15.10;8.00;;;;;;;16.69;87.34;100787.63;10292381;28;20133;-84
2023/09/25 03:46:19;;;;;;;22.13;9.68;;;;;;;16.68;87.13;100777.91;10303519;28;20058;-76
2023/09/25 03:51:20;;;;;;;22.65;10.60;;;;;;;16.46;86.79;100744.16;10274147;28;20047;-78
2023/09/25 03:56:21;;;;;;;31.10;9.38;;;;;;;16.43;86.66;100731.97;10291969;28;20054;-73
2023/09/25 04:01:22;;;;;;;31.55;8.35;;;;;;;16.81;86.46;100775.34;10291685;28;20083;-75
2023/09/25 04:06:23;;;;;;;23.70;6.97;;;;;;;16.83;85.64;100726.84;10274187;28;20059;-75
2023/09/25 04:11:24;;;;;;;29.92;5.55;;;;;;;17.62;84.52;100788.06;10291772;28;20051;-76
2023/09/25 04:16:24;;;;;;;21.92;4.72;;;;;;;17.47;83.28;100720.22;10291605;28;20058;-75
2023/09/25 04:21:25;;;;;;;30.73;6.22;;;;;;;18.06;82.62;100797.41;10291411;28;20055;-72
2023/09/25 04:42:32;;;;;;;8.48;2.85;;;;;;;18.84;78.52;100780.59;10482545;28;20900;-75
2023/09/25 04:47:33;;;;;;;12.95;4.50;;;;;;;19.21;78.04;100781.72;10479695;28;20041;-77
2023/09/25 04:52:34;;;;;;;8.82;3.80;;;;;;;19.53;77.00;100785.28;10479744;28;20055;-78
2023/09/25 04:57:35;;;;;;;15.77;3.88;;;;;;;19.87;76.25;100796.72;10482602;28;20039;-79
2023/09/25 05:02:35;;;;;;;10.68;4.18;;;;;;;20.21;75.56;100808.06;10482528;28;20029;-79
2023/09/25 05:26:51;;;;;;;5.35;3.60;;;;;;;22.12;69.34;100819.53;10482543;28;20492;-77
2023/09/25 05:31:52;;;;;;;12.70;3.80;;;;;;;22.11;68.41;100812.47;10482501;28;20544;-80
2023/09/25 05:36:52;;;;;;;14.27;3.65;;;;;;;22.41;67.78;100817.84;10483002;28;20036;-80
2023/09/25 05:41:53;;;;;;;6.97;3.00;;;;;;;22.45;67.17;100807.34;10483200;28;20033;-80
2023/09/25 05:46:54;;;;;;;11.10;3.17;;;;;;;22.13;67.47;100753.53;10482636;28;20049;-79
2023/09/25 05:51:55;;;;;;;5.22;2.97;;;;;;;22.23;67.57;100728.63;10482335;28;20521;-78
2023/09/25 05:56:56;;;;;;;6.43;2.75;;;;;;;22.93;66.22;100790.00;10481770;28;20054;-76
2023/09/25 06:01:57;;;;;;;15.40;3.67;;;;;;;23.09;65.63;100800.09;10481710;28;20045;-82
2023/09/25 06:06:57;;;;;;;12.43;3.45;;;;;;;23.12;65.53;100788.78;10481481;28;20479;-81
2023/09/25 06:11:58;;;;;;;7.40;3.25;;;;;;;22.65;64.89;100726.59;10481188;28;20182;-80
2023/09/25 06:16:59;;;;;;;7.47;3.22;;;;;;;22.88;65.73;100808.84;10481167;28;20560;-81
2023/09/25 06:22:00;;;;;;;10.63;4.05;;;;;;;22.62;65.67;100789.34;10481514;28;20064;-79
2023/09/25 06:27:01;;;;;;;12.20;3.30;;;;;;;22.87;65.23;100804.50;10458552;28;20128;-80
2023/09/25 06:32:03;;;;;;;14.88;3.40;;;;;;;22.85;64.83;100760.56;10452801;28;20255;-81
2023/09/25 06:37:05;;;;;;;7.00;2.95;;;;;;;23.15;64.77;100820.81;10452659;28;20053;-81
2023/09/25 06:42:06;;;;;;;12.07;3.80;;;;;;;22.96;65.40;100819.34;10453088;28;20049;-81
2023/09/25 06:47:07;;;;;;;14.52;3.67;;;;;;;22.60;65.58;100805.00;10453306;28;20045;-78
2023/09/25 06:52:09;;;;;;;8.02;3.72;;;;;;;22.56;66.62;100818.19;10452789;28;20028;-79
2023/09/25 06:57:09;;;;;;;14.50;3.70;;;;;;;22.75;66.45;100816.16;10452058;28;20041;-76
2023/09/25 07:02:10;;;;;;;9.35;3.13;;;;;;;22.59;65.60;100767.34;10451796;28;20037;-80
2023/09/25 07:07:11;;;;;;;14.57;3.67;;;;;;;22.75;65.15;100780.13;10452102;28;20049;-78
2023/09/25 07:12:15;;;;;;;17.60;4.45;;;;;;;22.99;65.16;100792.59;10451543;28;20041;-79
2023/09/25 07:17:16;;;;;;;16.83;3.13;;;;;;;23.07;64.90;100796.00;10451975;28;20072;-79
2023/09/25 07:22:17;;;;;;;16.65;3.45;;;;;;;23.16;64.88;100776.41;10451313;28;20056;-77
2023/09/25 07:27:18;;;;;;;24.27;4.50;;;;;;;23.34;63.37;100785.44;10451236;28;20041;-80
2023/09/25 07:32:18;;;;;;;10.95;3.58;;;;;;;23.00;62.54;100733.81;10451989;28;20044;-79
2023/09/25 07:37:19;;;;;;;18.20;3.00;;;;;;;22.68;60.00;100647.56;10449612;28;20069;-78
2023/09/25 07:42:21;;;;;;;7.88;2.47;;;;;;;23.75;57.41;100776.16;10451694;28;20572;-81
2023/09/25 07:47:21;;;;;;;12.93;2.72;;;;;;;23.94;56.71;100768.63;10451105;28;20080;-80
2023/09/25 07:52:24;;;;;;;8.77;2.70;;;;;;;24.18;57.43;100796.44;10451228;28;20433;-81
2023/09/25 07:57:25;;;;;;;9.30;2.42;;;;;;;24.19;56.86;100794.53;10450233;28;20048;-78
2023/09/25 08:02:25;;;;;;;21.35;3.00;;;;;;;24.04;56.86;100795.94;10450480;28;20052;-78
2023/09/25 08:07:26;;;;;;;14.50;2.38;;;;;;;23.86;56.87;100791.56;10450330;28;20415;-76
2023/09/25 08:12:27;;;;;;;12.57;2.80;;;;;;;23.62;56.69;100733.88;10450545;28;20041;-78
2023/09/25 08:17:28;;;;;;;7.65;2.58;;;;;;;23.42;55.75;100668.44;10449960;28;20041;-80
2023/09/25 08:22:31;;;;;;;7.72;2.20;;;;;;;24.20;55.96;100793.44;10450106;28;20597;-77
2023/09/25 08:27:31;;;;;;;19.37;3.37;;;;;;;23.77;56.64;100710.81;10448709;28;20127;-78
2023/09/25 08:32:32;;;;;;;9.20;2.60;;;;;;;24.28;56.22;100793.03;10449781;28;20037;-81
2023/09/25 08:37:33;;;;;;;11.40;2.72;;;;;;;24.07;56.96;100790.00;10449314;28;20127;-76
2023/09/25 08:42:35;;;;;;;11.43;2.70;;;;;;;23.73;57.80;100780.22;10448563;28;20148;-82
2023/09/25 08:47:36;;;;;;;6.78;2.65;;;;;;;23.73;58.13;100791.06;10448276;28;20037;-81
2023/09/25 08:52:37;;;;;;;8.27;3.20;;;;;;;23.62;59.53;100798.97;10448955;28;20040;-80
2023/09/25 08:57:39;;;;;;;13.70;3.50;;;;;;;23.56;60.00;100767.41;10449041;28;20037;-79
2023/09/25 09:02:43;;;;;;;18.63;3.60;;;;;;;23.66;60.75;100775.75;10448685;28;20449;-79
2023/09/25 09:08:00;;;;;;;18.70;2.92;;;;;;;23.66;60.44;100764.03;10448085;28;20388;-80
2023/09/25 09:13:04;;;;;;;11.07;3.10;;;;;;;23.28;58.92;100715.94;10447782;28;20487;-80
2023/09/25 09:18:20;;;;;;;11.15;2.75;;;;;;;23.41;58.40;100724.56;10447765;28;20437;-82
2023/09/25 09:23:38;;;;;;;13.35;2.45;;;;;;;23.76;58.12;100785.97;10447833;28;20061;-80
2023/09/25 09:28:43;;;;;;;10.57;2.65;;;;;;;23.64;59.55;100758.06;10447615;28;20049;-81
2023/09/25 09:33:44;;;;;;;14.45;2.30;;;;;;;23.63;59.21;100770.81;10447998;28;20123;-83
2023/09/25 09:38:46;;;;;;;18.80;3.03;;;;;;;23.61;60.30;100783.78;10448177;28;20048;-82
2023/09/25 09:43:47;;;;;;;7.10;2.58;;;;;;;23.19;60.50;100723.63;10447492;28;20113;-80
2023/09/25 09:48:50;;;;;;;18.33;2.60;;;;;;;23.42;60.65;100766.03;10446998;28;20040;-81
2023/09/25 09:53:52;;;;;;;12.23;2.67;;;;;;;23.43;59.96;100776.66;10447482;28;20033;-79
2023/09/25 09:58:54;;;;;;;10.00;2.38;;;;;;;23.32;60.36;100772.09;10447461;28;20072;-79
2023/09/25 10:03:55;;;;;;;12.48;2.65;;;;;;;22.79;60.64;100703.59;10454645;28;20056;-79
2023/09/25 10:09:08;;;;;;;13.50;2.65;;;;;;;22.95;60.03;100709.34;10454271;28;20044;-82
2023/09/25 10:14:09;;;;;;;13.40;2.20;;;;;;;23.24;60.34;100772.50;10454040;28;20529;-79
2023/09/25 10:19:22;;;;;;;11.98;2.75;;;;;;;23.28;59.65;100773.66;10453877;28;20332;-82
2023/09/25 10:24:25;;;;;;;10.95;2.33;;;;;;;22.93;60.22;100724.97;10453675;28;20431;-81
2023/09/25 10:29:27;;;;;;;14.77;2.83;;;;;;;23.28;59.89;100779.09;10453123;28;20045;-81
2023/09/25 10:34:29;;;;;;;30.98;3.50;;;;;;;23.15;59.70;100782.88;10453684;28;20069;-79
2023/09/25 10:39:30;;;;;;;15.82;3.28;;;;;;;23.04;59.00;100750.44;10452620;28;20120;-80
2023/09/25 10:44:31;;;;;;;23.40;3.30;;;;;;;22.89;62.18;100743.59;10452928;28;20131;-83
2023/09/25 10:49:37;;;;;;;25.77;3.15;;;;;;;23.08;63.18;100793.03;10453023;28;20128;-82
2023/09/25 10:54:38;;;;;;;25.25;3.15;;;;;;;22.60;63.40;100723.75;10452455;28;20043;-82
2023/09/25 10:59:39;;;;;;;18.30;3.75;;;;;;;23.03;63.26;100792.94;10452846;28;20047;-82
2023/09/25 11:04:39;;;;;;;14.63;2.92;;;;;;;23.01;63.80;100800.50;10452424;28;20049;-82
2023/09/25 11:09:40;;;;;;;11.95;3.40;;;;;;;23.04;63.86;100804.63;10452166;28;20121;-82
2023/09/25 11:14:41;;;;;;;12.23;3.38;;;;;;;23.08;64.61;100800.34;10452104;28;20039;-81
2023/09/25 11:19:45;;;;;;;10.88;3.22;;;;;;;23.20;65.51;100806.56;10452164;28;20097;-77
2023/09/25 11:24:55;;;;;;;18.42;3.35;;;;;;;22.83;66.44;100746.44;10451704;28;20065;-82
2023/09/25 11:29:56;;;;;;;11.70;3.63;;;;;;;22.12;65.69;100668.00;10451658;28;20041;-82
2023/09/25 11:34:57;;;;;;;15.60;3.47;;;;;;;22.94;62.84;100811.44;10450980;28;20064;-80
2023/09/25 11:39:58;;;;;;;17.95;3.90;;;;;;;22.75;60.91;100805.31;10451215;28;20033;-81
2023/09/25 11:44:59;;;;;;;12.88;3.35;;;;;;;22.69;60.09;100814.41;10450988;28;20041;-82
2023/09/25 11:50:00;;;;;;;14.90;4.30;;;;;;;22.47;59.89;100799.81;10450985;28;20037;-81
2023/09/25 11:55:01;;;;;;;17.60;3.97;;;;;;;22.25;60.67;100780.63;10450899;28;20095;-82
2023/09/25 12:00:04;;;;;;;17.15;3.95;;;;;;;22.34;60.76;100806.28;10449976;28;20072;-81
2023/09/25 12:05:06;;;;;;;21.67;3.90;;;;;;;22.34;59.73;100831.47;10450113;28;20051;-81
2023/09/25 12:10:08;;;;;;;26.10;4.60;;;;;;;21.82;59.78;100779.84;10450328;28;20123;-81
2023/09/25 12:15:11;;;;;;;31.20;4.43;;;;;;;21.96;59.62;100839.97;10450092;28;20399;-81
2023/09/25 12:20:15;;;;;;;23.85;4.13;;;;;;;21.86;58.87;100837.81;10449449;28;20124;-80
2023/09/25 12:25:16;;;;;;;29.20;4.25;;;;;;;21.63;58.74;100816.13;10449225;28;20065;-80
2023/09/25 12:30:18;;;;;;;41.25;4.93;;;;;;;21.00;59.25;100727.31;10449328;28;20041;-79
2023/09/25 12:35:18;;;;;;;26.63;4.13;;;;;;;21.57;60.08;100849.47;10448901;28;20086;-79
2023/09/25 12:40:19;;;;;;;13.98;4.03;;;;;;;21.38;60.94;100844.06;10449397;28;20535;-80
2023/09/25 12:45:21;;;;;;;20.42;4.10;;;;;;;20.68;61.79;100755.31;10448048;28;20479;-80
2023/09/25 12:50:22;;;;;;;28.55;4.70;;;;;;;21.09;63.27;100847.50;10449934;28;20052;-83
2023/09/25 12:55:23;;;;;;;20.88;3.63;;;;;;;20.43;64.68;100773.41;10449074;28;20040;-82
2023/09/25 13:00:24;;;;;;;27.77;4.95;;;;;;;19.94;66.04;100735.47;10449930;28;20041;-82
2023/09/25 13:05:25;;;;;;;21.52;4.70;;;;;;;20.21;66.98;100781.91;10446940;28;20040;-83
2023/09/25 13:10:27;;;;;;;21.17;5.10;;;;;;;19.98;68.39;100771.75;10449244;28;20060;-82
2023/09/25 13:15:28;;;;;;;19.00;5.05;;;;;;;19.97;68.89;100778.16;10448660;28;20068;-82
2023/09/25 13:20:29;;;;;;;33.83;5.07;;;;;;;19.48;69.60;100712.34;10446673;28;20152;-83
2023/09/25 13:25:30;;;;;;;24.50;4.97;;;;;;;19.45;69.77;100730.81;10440590;28;20113;-83
2023/09/25 13:30:31;;;;;;;25.77;5.22;;;;;;;20.25;69.26;100852.44;10446853;28;20071;-82
2023/09/25 13:35:32;;;;;;;23.15;4.85;;;;;;;19.67;69.79;100763.66;10448215;28;20044;-78
2023/09/25 13:40:33;;;;;;;35.15;5.55;;;;;;;20.20;69.75;100857.66;10440955;28;20033;-77
2023/09/25 13:45:33;;;;;;;53.17;6.60;;;;;;;20.17;70.80;100850.00;10439119;28;20132;-75
2023/09/25 13:50:34;;;;;;;30.73;5.90;;;;;;;20.17;70.07;100864.31;10454494;28;20037;-75
2023/09/25 13:55:35;;;;;;;32.05;6.03;;;;;;;20.16;70.00;100876.16;10454189;28;20048;-73
2023/09/25 14:00:36;;;;;;;62.78;9.73;;;;;;;19.92;70.74;100847.28;10423336;28;20048;-73
2023/09/25 14:05:38;;;;;;;42.15;6.38;;;;;;;19.93;70.82;100862.41;10412506;28;20042;-75
2023/09/25 14:10:39;;;;;;;46.55;7.00;;;;;;;19.51;70.69;100802.72;10408409;28;20045;-74
2023/09/25 14:15:40;;;;;;;106.65;9.52;;;;;;;19.41;71.59;100805.84;10411328;28;20041;-75
2023/09/25 14:20:41;;;;;;;64.05;23.25;;;;;;;19.77;71.52;100874.53;10410983;28;20052;-73
2023/09/25 14:25:41;;;;;;;79.03;17.85;;;;;;;19.69;71.85;100866.72;10411678;28;20393;-74
2023/09/25 14:30:42;;;;;;;87.38;17.33;;;;;;;19.34;72.76;100823.91;10411602;28;20037;-74
2023/09/25 14:35:44;;;;;;;61.92;18.42;;;;;;;19.49;72.80;100862.19;10411190;28;20404;-74
2023/09/25 14:40:45;;;;;;;48.20;13.18;;;;;;;19.27;72.64;100840.13;10419248;28;20033;-74
2023/09/25 14:45:48;;;;;;;38.35;11.18;;;;;;;18.55;74.01;100750.44;10436416;28;20045;-76
2023/09/25 14:50:49;;;;;;;43.95;10.18;;;;;;;18.45;74.54;100750.03;10429298;28;20079;-75
2023/09/25 14:55:50;;;;;;;35.10;9.10;;;;;;;18.32;75.14;100760.81;10436847;28;20129;-74
2023/09/25 15:00:56;;;;;;;27.25;6.18;;;;;;;18.29;75.92;100786.25;10443650;28;20040;-73
2023/09/25 15:05:57;;;;;;;46.78;8.70;;;;;;;19.08;76.20;100929.84;10451239;28;20049;-73
2023/09/25 15:10:58;;;;;;;25.52;7.00;;;;;;;19.14;76.44;100942.47;10450235;28;20500;-73
2023/09/25 15:15:58;;;;;;;46.47;7.90;;;;;;;18.70;77.87;100899.03;10449095;28;20041;-74
2023/09/25 15:21:07;;;;;;;34.47;7.75;;;;;;;18.35;78.86;100830.34;10450440;28;20037;-74
2023/09/25 15:26:09;;;;;;;33.22;7.03;;;;;;;18.24;77.12;100835.28;10451044;28;20065;-75
2023/09/25 15:31:10;;;;;;;39.38;7.85;;;;;;;17.94;77.13;100804.44;10446840;28;20044;-74
2023/09/25 15:36:11;;;;;;;47.30;6.93;;;;;;;18.77;77.77;100952.88;10447648;28;20041;-74
2023/09/25 15:41:12;;;;;;;34.20;6.18;;;;;;;18.67;77.63;100950.56;10450929;28;20564;-74
2023/09/25 15:46:14;;;;;;;31.67;6.43;;;;;;;18.35;77.60;100925.28;10450570;28;20072;-74
2023/09/25 15:51:15;;;;;;;25.00;5.18;;;;;;;17.91;77.64;100880.13;10450361;28;20530;-74
2023/09/25 15:56:15;;;;;;;24.25;5.22;;;;;;;17.79;77.86;100875.31;10449356;28;20051;-74
2023/09/25 16:01:16;;;;;;;21.98;5.10;;;;;;;18.19;78.03;100944.50;10448689;28;20037;-73
2023/09/25 16:06:17;;;;;;;41.65;6.55;;;;;;;17.85;79.26;100903.25;10448826;28;20062;-74
2023/09/25 16:11:18;;;;;;;21.58;5.32;;;;;;;18.14;79.31;100961.25;10450390;28;20037;-75
2023/09/25 16:16:19;;;;;;;27.60;5.28;;;;;;;17.29;79.52;100823.69;10447943;28;20091;-74
2023/09/25 16:21:21;;;;;;;19.95;5.25;;;;;;;17.75;79.46;100895.56;10449698;28;20072;-74
2023/09/25 16:26:22;;;;;;;25.70;5.63;;;;;;;17.82;79.56;100921.66;10447306;28;20061;-74
2023/09/25 16:31:23;;;;;;;26.45;5.63;;;;;;;17.33;79.62;100849.09;10448516;28;20523;-75
2023/09/25 16:36:24;;;;;;;19.45;5.47;;;;;;;17.41;79.44;100866.91;10447979;28;20040;-74
2023/09/25 16:41:27;;;;;;;23.33;6.03;;;;;;;17.58;80.21;100921.94;10448667;28;20041;-74
2023/09/25 16:46:28;;;;;;;33.50;6.43;;;;;;;17.75;80.69;100960.03;10447111;28;20079;-74
2023/09/25 16:51:28;;;;;;;43.35;13.55;;;;;;;16.57;80.25;100789.19;10447932;28;20048;-75
2023/09/25 16:56:29;;;;;;;41.50;12.60;;;;;;;16.66;80.37;100833.59;10448285;28;20499;-74
2023/09/25 17:01:30;;;;;;;36.35;11.13;;;;;;;16.50;80.91;100818.66;10447313;28;20033;-74
2023/09/25 17:06:31;;;;;;;44.70;12.95;;;;;;;16.66;81.49;100873.84;10447056;28;20040;-75
2023/09/25 17:11:33;;;;;;;71.03;12.93;;;;;;;17.29;81.81;100971.38;10447366;27;20040;-74
2023/09/25 17:16:34;;;;;;;42.58;12.80;;;;;;;16.91;81.95;100922.59;10446606;28;20444;-74
2023/09/25 17:21:35;;;;;;;35.88;11.77;;;;;;;16.98;82.45;100976.31;10447820;28;20048;-75
2023/09/25 17:26:36;;;;;;;39.00;12.15;;;;;;;16.45;82.99;100904.22;10448251;28;20447;-74
2023/09/25 17:31:37;;;;;;;39.65;13.23;;;;;;;16.77;83.14;100945.78;10440146;28;20033;-75
2023/09/25 17:36:38;;;;;;;40.40;12.88;;;;;;;16.74;83.40;100939.97;10436543;28;20415;-76
2023/09/25 17:41:38;;;;;;;40.78;12.38;;;;;;;16.64;83.51;100924.19;10434982;28;20033;-76
2023/09/25 17:46:39;;;;;;;50.58;12.10;;;;;;;16.44;83.78;100898.03;10431836;28;20098;-74
2023/09/25 17:51:40;;;;;;;43.35;12.25;;;;;;;16.48;84.03;100909.19;10436041;28;20051;-74
2023/09/25 17:56:42;;;;;;;59.50;13.38;;;;;;;16.89;84.34;100981.81;10433202;28;20255;-77
2023/09/25 18:01:43;;;;;;;33.25;12.40;;;;;;;16.77;84.98;100969.13;10431109;28;20048;-78
2023/09/25 18:06:44;;;;;;;43.78;13.15;;;;;;;16.95;84.68;100987.44;10431397;28;20045;-76
2023/09/25 18:11:45;;;;;;;48.38;13.25;;;;;;;16.64;85.07;100934.94;10441478;28;20424;-75
2023/09/25 18:16:45;;;;;;;56.40;13.60;;;;;;;16.77;85.38;100977.97;10446651;28;20492;-75
2023/09/25 18:21:46;;;;;;;55.80;14.60;;;;;;;16.74;85.70;100990.94;10449616;28;20059;-75
2023/09/25 18:26:47;;;;;;;52.47;13.88;;;;;;;16.65;85.81;100985.69;10453307;28;20516;-75
2023/09/25 18:31:48;;;;;;;47.17;13.82;;;;;;;16.59;86.09;100980.28;10453338;28;20044;-75
2023/09/25 18:36:49;;;;;;;26.88;12.10;;;;;;;16.58;86.29;100986.66;10453204;28;20511;-75
2023/09/25 18:41:49;;;;;;;42.17;12.13;;;;;;;16.61;85.80;100988.97;10452843;28;20455;-75
2023/09/25 18:46:50;;;;;;;18.92;5.25;;;;;;;16.56;82.76;100940.41;10452275;28;20041;-75
2023/09/25 18:51:51;;;;;;;23.15;6.18;;;;;;;16.82;79.58;100929.94;10452439;28;20044;-74
2023/09/25 18:56:52;;;;;;;30.77;8.50;;;;;;;17.36;78.11;100984.00;10452561;28;20048;-75
2023/09/25 19:01:53;;;;;;;28.48;9.20;;;;;;;17.40;77.60;100991.47;10453305;28;20037;-75
2023/09/25 19:06:54;;;;;;;26.45;8.60;;;;;;;17.24;77.83;100984.56;10450388;28;20412;-76
2023/09/25 19:11:56;;;;;;;31.27;8.38;;;;;;;17.06;78.05;100970.78;10450882;28;20087;-75
2023/09/25 19:16:57;;;;;;;24.15;7.15;;;;;;;16.90;78.58;100950.41;10450673;28;20136;-75
2023/09/25 19:21:57;;;;;;;21.77;6.75;;;;;;;16.86;79.30;100968.78;10451802;28;20131;-76
2023/09/25 19:26:58;;;;;;;30.35;8.40;;;;;;;16.91;79.39;100972.75;10450067;28;20520;-74
2023/09/25 19:31:59;;;;;;;27.60;15.65;;;;;;;16.99;78.64;100964.53;10450609;28;20128;-75
2023/09/25 19:37:00;;;;;;;58.60;17.67;;;;;;;16.65;78.15;100882.94;10451381;28;20065;-75
2023/09/25 19:42:02;;;;;;;34.13;19.08;;;;;;;16.86;77.86;100909.75;10452229;28;20045;-75
2023/09/25 19:47:03;;;;;;;27.52;16.25;;;;;;;17.05;77.38;100926.16;10451764;28;20140;-75
2023/09/25 19:52:04;;;;;;;25.88;14.70;;;;;;;17.34;77.32;100962.72;10449270;28;20037;-75
2023/09/25 19:57:11;;;;;;;20.38;13.10;;;;;;;16.81;77.37;100871.09;10450164;28;20037;-75
2023/09/25 20:02:12;;;;;;;19.05;10.40;;;;;;;17.33;77.32;100961.06;10450549;28;20041;-75
2023/09/25 20:07:13;;;;;;;18.15;9.57;;;;;;;17.01;77.78;100908.81;10450458;28;20404;-75
2023/09/25 20:12:14;;;;;;;15.32;9.50;;;;;;;16.87;78.03;100889.09;10450767;28;20039;-75
2023/09/25 20:17:14;;;;;;;15.68;8.75;;;;;;;16.65;78.38;100861.47;10449409;28;20039;-75
2023/09/25 20:22:15;;;;;;;16.83;9.00;;;;;;;16.90;79.04;100902.13;10450305;28;20376;-75
2023/09/25 20:27:16;;;;;;;14.40;9.02;;;;;;;16.75;79.38;100888.81;10449928;28;20491;-75
2023/09/25 20:32:17;;;;;;;14.73;9.35;;;;;;;16.99;79.96;100925.13;10449979;28;20061;-75
2023/09/25 20:37:18;;;;;;;15.63;8.85;;;;;;;17.00;80.66;100932.16;10449560;28;20047;-75
2023/09/25 20:42:18;;;;;;;16.80;8.00;;;;;;;16.32;80.97;100827.19;10449380;28;20464;-75
2023/09/25 20:47:19;;;;;;;16.27;8.45;;;;;;;16.59;81.75;100872.97;10449835;28;20105;-75
2023/09/25 20:52:20;;;;;;;11.15;8.02;;;;;;;16.91;82.26;100936.00;10449436;28;20049;-75
2023/09/25 20:57:21;;;;;;;12.38;8.18;;;;;;;16.55;82.58;100882.44;10448340;28;20041;-75
2023/09/25 21:02:21;;;;;;;11.90;7.90;;;;;;;15.95;83.31;100791.63;10447986;28;20044;-75
2023/09/25 21:07:22;;;;;;;11.60;7.90;;;;;;;16.48;83.35;100878.88;10447964;28;20037;-75
2023/09/25 21:12:23;;;;;;;11.68;7.65;;;;;;;16.41;83.71;100871.59;10448423;28;20041;-75
2023/09/25 21:17:23;;;;;;;14.15;7.80;;;;;;;16.77;84.34;100929.69;10448276;28;20079;-75
2023/09/25 21:22:24;;;;;;;11.20;7.88;;;;;;;16.80;84.27;100928.47;10447935;28;20061;-75
2023/09/25 21:27:25;;;;;;;11.48;7.40;;;;;;;16.76;84.80;100938.78;10446497;28;20040;-75
2023/09/25 21:32:26;;;;;;;12.52;8.18;;;;;;;16.48;85.10;100913.72;10447999;28;20052;-78
2023/09/25 21:37:26;;;;;;;13.07;7.70;;;;;;;16.24;85.84;100902.38;10448435;28;20044;-75
2023/09/25 21:42:27;;;;;;;12.35;8.10;;;;;;;16.33;86.60;100940.59;10446949;28;20408;-75
2023/09/25 21:47:28;;;;;;;11.02;7.95;;;;;;;15.62;87.11;100854.72;10447699;28;20076;-74
2023/09/25 21:52:28;;;;;;;17.35;8.73;;;;;;;15.89;87.79;100915.63;10447680;28;20049;-75
2023/09/25 21:57:29;;;;;;;13.02;8.40;;;;;;;15.67;88.21;100897.81;10451845;28;20504;-75
2023/09/25 22:02:30;;;;;;;13.68;8.00;;;;;;;15.71;88.66;100936.63;10453860;28;20090;-75
2023/09/25 22:07:31;;;;;;;13.18;8.45;;;;;;;15.44;89.27;100884.56;10454447;28;20071;-75
2023/09/25 22:12:32;;;;;;;10.77;7.90;;;;;;;15.35;89.71;100856.25;10454090;28;20045;-75
2023/09/25 22:17:32;;;;;;;15.48;9.13;;;;;;;15.73;90.24;100903.28;10453679;28;20041;-75
2023/09/25 22:22:33;;;;;;;10.75;8.30;;;;;;;15.98;90.61;100946.66;10453494;28;20052;-75
2023/09/25 22:27:34;;;;;;;10.65;8.00;;;;;;;16.03;91.42;100942.56;10453841;28;20044;-75
2023/09/25 22:32:35;;;;;;;13.25;8.52;;;;;;;16.20;91.45;100944.00;10453059;28;20135;-75
2023/09/25 22:37:37;;;;;;;16.05;9.00;;;;;;;16.15;92.62;100946.41;10453795;28;20049;-75
2023/09/25 22:42:39;;;;;;;13.55;9.10;;;;;;;16.33;93.37;100948.66;10451953;28;20040;-75
2023/09/25 22:47:39;;;;;;;14.25;9.80;;;;;;;15.74;93.89;100843.34;10452667;28;20048;-76
2023/09/25 22:52:40;;;;;;;12.75;9.32;;;;;;;16.32;94.72;100928.22;10452380;28;20041;-75
2023/09/25 22:57:41;;;;;;;11.52;8.63;;;;;;;16.29;95.26;100928.63;10452147;28;20053;-78
2023/09/25 23:02:54;;;;;;;17.77;8.65;;;;;;;16.30;98.54;100928.41;10452590;28;20040;-75
2023/09/25 23:07:56;;;;;;;13.38;8.80;;;;;;;16.35;96.72;100939.41;10451901;28;20060;-75
2023/09/25 23:12:57;;;;;;;11.82;8.98;;;;;;;16.14;97.17;100900.00;10452297;28;20041;-76
2023/09/25 23:17:58;;;;;;;14.05;9.23;;;;;;;16.32;97.78;100931.75;10452795;28;20041;-75
2023/09/25 23:23:00;;;;;;;13.65;10.50;;;;;;;16.01;98.47;100901.75;10451868;28;20103;-75